sensor_id;sensor_type;location;lat;lon;timestamp;P1;durP1;ratioP1;P2;durP2;ratioP2
6306;SDS011;3186;54.062;9.962;2024-01-30T00:01:19;12.53;;;11.00;;
6306;SDS011;3186;54.062;9.962;2024-01-30T00:03:44;12.10;;;10.03;;
6306;SDS011;3186;54.062;9.962;2024-01-30T00:06:11;17.57;;;13.47;;
6306;SDS011;3186;54.062;9.962;2024-01-30T00:08:37;18.13;;;13.53;;
6306;SDS011;3186;54.062;9.962;2024-01-30T00:11:02;15.70;;;12.40;;
6306;SDS011;3186;54.062;9.962;2024-01-30T00:13:28;19.30;;;13.07;;
6306;SDS011;3186;54.062;9.962;2024-01-30T00:15:54;18.40;;;15.00;;
6306;SDS011;3186;54.062;9.962;2024-01-30T00:18:19;22.80;;;13.40;;
6306;SDS011;3186;54.062;9.962;2024-01-30T00:20:45;16.63;;;13.30;;
6306;SDS011;3186;54.062;9.962;2024-01-30T00:23:10;15.60;;;12.80;;
6306;SDS011;3186;54.062;9.962;2024-01-30T00:25:36;20.63;;;12.83;;
6306;SDS011;3186;54.062;9.962;2024-01-30T00:28:02;15.33;;;11.53;;
6306;SDS011;3186;54.062;9.962;2024-01-30T00:30:28;18.67;;;12.93;;
6306;SDS011;3186;54.062;9.962;2024-01-30T00:32:53;13.53;;;11.10;;
6306;SDS011;3186;54.062;9.962;2024-01-30T00:35:19;18.67;;;13.30;;
6306;SDS011;3186;54.062;9.962;2024-01-30T00:37:47;24.73;;;15.40;;
6306;SDS011;3186;54.062;9.962;2024-01-30T00:40:12;22.97;;;14.70;;
6306;SDS011;3186;54.062;9.962;2024-01-30T00:42:43;22.37;;;15.40;;
6306;SDS011;3186;54.062;9.962;2024-01-30T00:45:13;19.37;;;14.47;;
6306;SDS011;3186;54.062;9.962;2024-01-30T00:47:40;13.63;;;10.70;;
6306;SDS011;3186;54.062;9.962;2024-01-30T00:50:05;13.90;;;10.73;;
6306;SDS011;3186;54.062;9.962;2024-01-30T00:52:31;13.10;;;9.43;;
6306;SDS011;3186;54.062;9.962;2024-01-30T00:54:58;16.77;;;10.57;;
6306;SDS011;3186;54.062;9.962;2024-01-30T00:57:24;16.83;;;11.13;;
6306;SDS011;3186;54.062;9.962;2024-01-30T00:59:50;14.70;;;10.70;;
6306;SDS011;3186;54.062;9.962;2024-01-30T01:02:15;18.23;;;13.23;;
6306;SDS011;3186;54.062;9.962;2024-01-30T01:04:42;14.73;;;9.77;;
6306;SDS011;3186;54.062;9.962;2024-01-30T01:07:09;14.27;;;11.17;;
6306;SDS011;3186;54.062;9.962;2024-01-30T01:09:35;16.90;;;11.77;;
6306;SDS011;3186;54.062;9.962;2024-01-30T01:12:01;16.93;;;11.80;;
6306;SDS011;3186;54.062;9.962;2024-01-30T01:14:27;13.57;;;10.97;;
6306;SDS011;3186;54.062;9.962;2024-01-30T01:16:53;23.43;;;14.47;;
6306;SDS011;3186;54.062;9.962;2024-01-30T01:19:18;22.67;;;13.73;;
6306;SDS011;3186;54.062;9.962;2024-01-30T01:21:44;21.07;;;14.67;;
6306;SDS011;3186;54.062;9.962;2024-01-30T01:24:09;24.10;;;15.27;;
6306;SDS011;3186;54.062;9.962;2024-01-30T01:26:35;18.53;;;13.87;;
6306;SDS011;3186;54.062;9.962;2024-01-30T01:29:01;19.57;;;12.57;;
6306;SDS011;3186;54.062;9.962;2024-01-30T01:31:26;23.23;;;14.27;;
6306;SDS011;3186;54.062;9.962;2024-01-30T01:33:54;17.47;;;12.10;;
6306;SDS011;3186;54.062;9.962;2024-01-30T01:36:20;24.13;;;16.33;;
6306;SDS011;3186;54.062;9.962;2024-01-30T01:38:46;22.60;;;14.67;;
6306;SDS011;3186;54.062;9.962;2024-01-30T01:41:11;18.30;;;14.20;;
6306;SDS011;3186;54.062;9.962;2024-01-30T01:43:37;17.20;;;13.33;;
6306;SDS011;3186;54.062;9.962;2024-01-30T01:46:04;21.90;;;14.30;;
6306;SDS011;3186;54.062;9.962;2024-01-30T01:48:31;24.17;;;15.20;;
6306;SDS011;3186;54.062;9.962;2024-01-30T01:50:57;20.27;;;15.07;;
6306;SDS011;3186;54.062;9.962;2024-01-30T01:53:23;22.67;;;15.27;;
6306;SDS011;3186;54.062;9.962;2024-01-30T01:55:49;15.83;;;11.47;;
6306;SDS011;3186;54.062;9.962;2024-01-30T01:58:17;21.00;;;13.33;;
6306;SDS011;3186;54.062;9.962;2024-01-30T02:00:47;14.43;;;11.20;;
6306;SDS011;3186;54.062;9.962;2024-01-30T02:03:12;14.57;;;11.37;;
6306;SDS011;3186;54.062;9.962;2024-01-30T02:05:42;19.67;;;13.43;;
6306;SDS011;3186;54.062;9.962;2024-01-30T02:08:08;17.87;;;12.07;;
6306;SDS011;3186;54.062;9.962;2024-01-30T02:10:34;20.43;;;12.43;;
6306;SDS011;3186;54.062;9.962;2024-01-30T02:12:59;19.83;;;12.20;;
6306;SDS011;3186;54.062;9.962;2024-01-30T02:15:25;21.50;;;12.97;;
6306;SDS011;3186;54.062;9.962;2024-01-30T02:17:50;16.53;;;12.13;;
6306;SDS011;3186;54.062;9.962;2024-01-30T02:20:16;15.57;;;11.67;;
6306;SDS011;3186;54.062;9.962;2024-01-30T02:22:42;18.20;;;11.90;;
6306;SDS011;3186;54.062;9.962;2024-01-30T02:25:08;18.37;;;12.43;;
6306;SDS011;3186;54.062;9.962;2024-01-30T02:27:34;19.17;;;12.60;;
6306;SDS011;3186;54.062;9.962;2024-01-30T02:29:59;18.77;;;12.23;;
6306;SDS011;3186;54.062;9.962;2024-01-30T02:32:25;15.90;;;12.30;;
6306;SDS011;3186;54.062;9.962;2024-01-30T02:34:50;17.17;;;13.40;;
6306;SDS011;3186;54.062;9.962;2024-01-30T02:37:16;20.13;;;13.33;;
6306;SDS011;3186;54.062;9.962;2024-01-30T02:39:42;16.77;;;12.37;;
6306;SDS011;3186;54.062;9.962;2024-01-30T02:42:08;17.30;;;12.43;;
6306;SDS011;3186;54.062;9.962;2024-01-30T02:44:33;19.53;;;13.20;;
6306;SDS011;3186;54.062;9.962;2024-01-30T02:46:59;18.30;;;13.73;;
6306;SDS011;3186;54.062;9.962;2024-01-30T02:49:24;18.10;;;13.13;;
6306;SDS011;3186;54.062;9.962;2024-01-30T02:51:51;15.80;;;12.17;;
6306;SDS011;3186;54.062;9.962;2024-01-30T02:54:17;17.00;;;12.90;;
6306;SDS011;3186;54.062;9.962;2024-01-30T02:56:43;19.13;;;13.07;;
6306;SDS011;3186;54.062;9.962;2024-01-30T02:59:08;19.10;;;12.90;;
6306;SDS011;3186;54.062;9.962;2024-01-30T03:01:41;15.87;;;13.03;;
6306;SDS011;3186;54.062;9.962;2024-01-30T03:04:08;18.03;;;12.93;;
6306;SDS011;3186;54.062;9.962;2024-01-30T03:06:33;17.73;;;13.27;;
6306;SDS011;3186;54.062;9.962;2024-01-30T03:08:59;18.67;;;13.93;;
6306;SDS011;3186;54.062;9.962;2024-01-30T03:11:24;22.03;;;12.70;;
6306;SDS011;3186;54.062;9.962;2024-01-30T03:13:50;17.20;;;11.73;;
6306;SDS011;3186;54.062;9.962;2024-01-30T03:16:16;22.73;;;13.70;;
6306;SDS011;3186;54.062;9.962;2024-01-30T03:18:42;20.13;;;12.73;;
6306;SDS011;3186;54.062;9.962;2024-01-30T03:21:07;22.47;;;14.33;;
6306;SDS011;3186;54.062;9.962;2024-01-30T03:23:33;17.00;;;12.03;;
6306;SDS011;3186;54.062;9.962;2024-01-30T03:25:59;20.63;;;12.80;;
6306;SDS011;3186;54.062;9.962;2024-01-30T03:28:24;16.70;;;12.80;;
6306;SDS011;3186;54.062;9.962;2024-01-30T03:30:50;16.47;;;12.07;;
6306;SDS011;3186;54.062;9.962;2024-01-30T03:33:15;16.03;;;13.20;;
6306;SDS011;3186;54.062;9.962;2024-01-30T03:35:41;18.33;;;13.00;;
6306;SDS011;3186;54.062;9.962;2024-01-30T03:38:06;16.83;;;12.90;;
6306;SDS011;3186;54.062;9.962;2024-01-30T03:40:32;16.70;;;12.53;;
6306;SDS011;3186;54.062;9.962;2024-01-30T03:42:58;16.73;;;12.43;;
6306;SDS011;3186;54.062;9.962;2024-01-30T03:45:23;15.60;;;12.20;;
6306;SDS011;3186;54.062;9.962;2024-01-30T03:47:49;17.83;;;12.37;;
6306;SDS011;3186;54.062;9.962;2024-01-30T03:50:15;17.60;;;13.07;;
6306;SDS011;3186;54.062;9.962;2024-01-30T03:52:40;20.33;;;13.23;;
6306;SDS011;3186;54.062;9.962;2024-01-30T03:55:06;21.03;;;13.53;;
6306;SDS011;3186;54.062;9.962;2024-01-30T03:57:32;21.17;;;13.63;;
6306;SDS011;3186;54.062;9.962;2024-01-30T03:59:57;17.27;;;12.97;;
6306;SDS011;3186;54.062;9.962;2024-01-30T04:02:23;20.40;;;12.00;;
6306;SDS011;3186;54.062;9.962;2024-01-30T04:04:49;17.90;;;13.23;;
6306;SDS011;3186;54.062;9.962;2024-01-30T04:07:14;17.83;;;13.23;;
6306;SDS011;3186;54.062;9.962;2024-01-30T04:09:40;16.73;;;12.47;;
6306;SDS011;3186;54.062;9.962;2024-01-30T04:12:06;19.97;;;13.47;;
6306;SDS011;3186;54.062;9.962;2024-01-30T04:14:31;20.27;;;13.07;;
6306;SDS011;3186;54.062;9.962;2024-01-30T04:16:57;21.73;;;12.80;;
6306;SDS011;3186;54.062;9.962;2024-01-30T04:19:23;21.27;;;12.80;;
6306;SDS011;3186;54.062;9.962;2024-01-30T04:21:48;20.13;;;13.43;;
6306;SDS011;3186;54.062;9.962;2024-01-30T04:24:14;17.50;;;13.17;;
6306;SDS011;3186;54.062;9.962;2024-01-30T04:26:42;17.90;;;13.23;;
6306;SDS011;3186;54.062;9.962;2024-01-30T04:29:07;21.57;;;13.73;;
6306;SDS011;3186;54.062;9.962;2024-01-30T04:31:33;19.97;;;14.13;;
6306;SDS011;3186;54.062;9.962;2024-01-30T04:34:00;19.37;;;13.77;;
6306;SDS011;3186;54.062;9.962;2024-01-30T04:36:26;18.13;;;12.80;;
6306;SDS011;3186;54.062;9.962;2024-01-30T04:38:52;20.20;;;13.97;;
6306;SDS011;3186;54.062;9.962;2024-01-30T04:41:17;18.83;;;12.83;;
6306;SDS011;3186;54.062;9.962;2024-01-30T04:43:43;19.30;;;12.13;;
6306;SDS011;3186;54.062;9.962;2024-01-30T04:46:08;24.57;;;12.67;;
6306;SDS011;3186;54.062;9.962;2024-01-30T04:48:34;22.33;;;13.07;;
6306;SDS011;3186;54.062;9.962;2024-01-30T04:51:00;16.60;;;12.50;;
6306;SDS011;3186;54.062;9.962;2024-01-30T04:53:29;17.83;;;13.40;;
6306;SDS011;3186;54.062;9.962;2024-01-30T04:55:55;16.83;;;12.43;;
6306;SDS011;3186;54.062;9.962;2024-01-30T04:58:20;16.87;;;12.27;;
6306;SDS011;3186;54.062;9.962;2024-01-30T05:00:46;16.73;;;11.90;;
6306;SDS011;3186;54.062;9.962;2024-01-30T05:03:16;17.77;;;12.17;;
6306;SDS011;3186;54.062;9.962;2024-01-30T05:05:42;17.90;;;12.70;;
6306;SDS011;3186;54.062;9.962;2024-01-30T05:08:08;18.83;;;11.70;;
6306;SDS011;3186;54.062;9.962;2024-01-30T05:10:33;21.60;;;14.50;;
6306;SDS011;3186;54.062;9.962;2024-01-30T05:12:59;24.93;;;14.10;;
6306;SDS011;3186;54.062;9.962;2024-01-30T05:15:25;20.70;;;14.37;;
6306;SDS011;3186;54.062;9.962;2024-01-30T05:17:50;22.47;;;13.90;;
6306;SDS011;3186;54.062;9.962;2024-01-30T05:20:16;16.43;;;13.03;;
6306;SDS011;3186;54.062;9.962;2024-01-30T05:22:42;22.37;;;13.90;;
6306;SDS011;3186;54.062;9.962;2024-01-30T05:25:10;19.00;;;13.10;;
6306;SDS011;3186;54.062;9.962;2024-01-30T05:27:37;21.03;;;13.67;;
6306;SDS011;3186;54.062;9.962;2024-01-30T05:30:03;18.87;;;13.50;;
6306;SDS011;3186;54.062;9.962;2024-01-30T05:32:30;18.43;;;13.03;;
6306;SDS011;3186;54.062;9.962;2024-01-30T05:34:55;18.00;;;12.30;;
6306;SDS011;3186;54.062;9.962;2024-01-30T05:37:21;17.70;;;12.00;;
6306;SDS011;3186;54.062;9.962;2024-01-30T05:39:46;18.73;;;12.47;;
6306;SDS011;3186;54.062;9.962;2024-01-30T05:42:12;19.33;;;11.90;;
6306;SDS011;3186;54.062;9.962;2024-01-30T05:44:38;14.63;;;11.17;;
6306;SDS011;3186;54.062;9.962;2024-01-30T05:47:03;16.83;;;11.50;;
6306;SDS011;3186;54.062;9.962;2024-01-30T05:49:29;14.53;;;11.20;;
6306;SDS011;3186;54.062;9.962;2024-01-30T05:51:55;15.97;;;11.40;;
6306;SDS011;3186;54.062;9.962;2024-01-30T05:54:20;16.57;;;11.60;;
6306;SDS011;3186;54.062;9.962;2024-01-30T05:56:46;16.80;;;11.37;;
6306;SDS011;3186;54.062;9.962;2024-01-30T05:59:12;16.93;;;12.10;;
6306;SDS011;3186;54.062;9.962;2024-01-30T06:01:37;17.23;;;12.07;;
6306;SDS011;3186;54.062;9.962;2024-01-30T06:04:03;15.00;;;12.27;;
6306;SDS011;3186;54.062;9.962;2024-01-30T06:06:28;14.60;;;11.60;;
6306;SDS011;3186;54.062;9.962;2024-01-30T06:08:54;15.23;;;12.60;;
6306;SDS011;3186;54.062;9.962;2024-01-30T06:11:21;14.67;;;10.83;;
6306;SDS011;3186;54.062;9.962;2024-01-30T06:13:46;18.67;;;11.97;;
6306;SDS011;3186;54.062;9.962;2024-01-30T06:16:12;17.80;;;12.33;;
6306;SDS011;3186;54.062;9.962;2024-01-30T06:18:38;14.13;;;11.40;;
6306;SDS011;3186;54.062;9.962;2024-01-30T06:21:04;17.83;;;12.00;;
6306;SDS011;3186;54.062;9.962;2024-01-30T06:23:30;14.90;;;11.73;;
6306;SDS011;3186;54.062;9.962;2024-01-30T06:25:55;18.03;;;12.10;;
6306;SDS011;3186;54.062;9.962;2024-01-30T06:28:21;15.17;;;11.20;;
6306;SDS011;3186;54.062;9.962;2024-01-30T06:30:47;14.67;;;10.80;;
6306;SDS011;3186;54.062;9.962;2024-01-30T06:33:13;15.17;;;11.73;;
6306;SDS011;3186;54.062;9.962;2024-01-30T06:35:40;17.93;;;12.43;;
6306;SDS011;3186;54.062;9.962;2024-01-30T06:38:06;17.13;;;11.63;;
6306;SDS011;3186;54.062;9.962;2024-01-30T06:40:31;20.30;;;12.33;;
6306;SDS011;3186;54.062;9.962;2024-01-30T06:42:57;19.70;;;11.40;;
6306;SDS011;3186;54.062;9.962;2024-01-30T06:45:22;19.17;;;12.43;;
6306;SDS011;3186;54.062;9.962;2024-01-30T06:47:48;15.37;;;11.43;;
6306;SDS011;3186;54.062;9.962;2024-01-30T06:50:14;17.87;;;12.10;;
6306;SDS011;3186;54.062;9.962;2024-01-30T06:52:39;20.60;;;12.13;;
6306;SDS011;3186;54.062;9.962;2024-01-30T06:55:05;13.57;;;11.17;;
6306;SDS011;3186;54.062;9.962;2024-01-30T06:57:31;16.63;;;12.83;;
6306;SDS011;3186;54.062;9.962;2024-01-30T06:59:57;18.10;;;13.10;;
6306;SDS011;3186;54.062;9.962;2024-01-30T07:02:22;15.53;;;11.53;;
6306;SDS011;3186;54.062;9.962;2024-01-30T07:04:48;15.33;;;11.43;;
6306;SDS011;3186;54.062;9.962;2024-01-30T07:07:14;17.23;;;12.03;;
6306;SDS011;3186;54.062;9.962;2024-01-30T07:09:40;16.23;;;11.87;;
6306;SDS011;3186;54.062;9.962;2024-01-30T07:12:06;17.77;;;11.50;;
6306;SDS011;3186;54.062;9.962;2024-01-30T07:14:32;15.27;;;11.27;;
6306;SDS011;3186;54.062;9.962;2024-01-30T07:16:58;14.13;;;11.17;;
6306;SDS011;3186;54.062;9.962;2024-01-30T07:19:23;16.47;;;11.97;;
6306;SDS011;3186;54.062;9.962;2024-01-30T07:21:49;22.00;;;11.80;;
6306;SDS011;3186;54.062;9.962;2024-01-30T07:24:14;15.73;;;12.33;;
6306;SDS011;3186;54.062;9.962;2024-01-30T07:26:40;16.33;;;11.63;;
6306;SDS011;3186;54.062;9.962;2024-01-30T07:29:06;16.63;;;12.07;;
6306;SDS011;3186;54.062;9.962;2024-01-30T07:31:31;15.43;;;11.43;;
6306;SDS011;3186;54.062;9.962;2024-01-30T07:33:57;21.17;;;14.10;;
6306;SDS011;3186;54.062;9.962;2024-01-30T07:36:23;18.03;;;12.77;;
6306;SDS011;3186;54.062;9.962;2024-01-30T07:38:48;21.60;;;13.80;;
6306;SDS011;3186;54.062;9.962;2024-01-30T07:41:15;19.47;;;13.50;;
6306;SDS011;3186;54.062;9.962;2024-01-30T07:43:40;14.23;;;11.13;;
6306;SDS011;3186;54.062;9.962;2024-01-30T07:46:06;17.17;;;12.67;;
6306;SDS011;3186;54.062;9.962;2024-01-30T07:48:34;23.43;;;14.50;;
6306;SDS011;3186;54.062;9.962;2024-01-30T07:51:00;16.97;;;12.77;;
6306;SDS011;3186;54.062;9.962;2024-01-30T07:53:28;17.13;;;11.83;;
6306;SDS011;3186;54.062;9.962;2024-01-30T07:55:53;17.53;;;12.80;;
6306;SDS011;3186;54.062;9.962;2024-01-30T07:58:19;17.73;;;12.17;;
6306;SDS011;3186;54.062;9.962;2024-01-30T08:00:44;18.13;;;13.80;;
6306;SDS011;3186;54.062;9.962;2024-01-30T08:03:10;18.70;;;13.63;;
6306;SDS011;3186;54.062;9.962;2024-01-30T08:05:37;16.83;;;12.53;;
6306;SDS011;3186;54.062;9.962;2024-01-30T08:08:04;17.33;;;12.30;;
6306;SDS011;3186;54.062;9.962;2024-01-30T08:10:30;19.97;;;15.53;;
6306;SDS011;3186;54.062;9.962;2024-01-30T08:12:55;17.80;;;13.73;;
6306;SDS011;3186;54.062;9.962;2024-01-30T08:15:21;20.17;;;14.00;;
6306;SDS011;3186;54.062;9.962;2024-01-30T08:17:47;17.83;;;13.43;;
6306;SDS011;3186;54.062;9.962;2024-01-30T08:20:12;26.40;;;16.13;;
6306;SDS011;3186;54.062;9.962;2024-01-30T08:22:39;22.53;;;15.90;;
6306;SDS011;3186;54.062;9.962;2024-01-30T08:25:08;19.27;;;15.63;;
6306;SDS011;3186;54.062;9.962;2024-01-30T08:27:35;21.50;;;15.90;;
6306;SDS011;3186;54.062;9.962;2024-01-30T08:30:03;22.97;;;15.83;;
6306;SDS011;3186;54.062;9.962;2024-01-30T08:32:30;22.00;;;16.07;;
6306;SDS011;3186;54.062;9.962;2024-01-30T08:34:55;19.37;;;16.00;;
6306;SDS011;3186;54.062;9.962;2024-01-30T08:37:21;28.90;;;18.30;;
6306;SDS011;3186;54.062;9.962;2024-01-30T08:39:47;26.87;;;17.77;;
6306;SDS011;3186;54.062;9.962;2024-01-30T08:42:12;25.37;;;17.47;;
6306;SDS011;3186;54.062;9.962;2024-01-30T08:44:38;24.13;;;17.73;;
6306;SDS011;3186;54.062;9.962;2024-01-30T08:47:04;27.07;;;18.77;;
6306;SDS011;3186;54.062;9.962;2024-01-30T08:49:29;23.37;;;16.93;;
6306;SDS011;3186;54.062;9.962;2024-01-30T08:51:55;25.37;;;17.53;;
6306;SDS011;3186;54.062;9.962;2024-01-30T08:54:21;24.47;;;17.57;;
6306;SDS011;3186;54.062;9.962;2024-01-30T08:56:46;24.60;;;18.60;;
6306;SDS011;3186;54.062;9.962;2024-01-30T08:59:12;25.70;;;17.40;;
6306;SDS011;3186;54.062;9.962;2024-01-30T09:01:37;28.13;;;19.73;;
6306;SDS011;3186;54.062;9.962;2024-01-30T09:04:03;24.43;;;18.13;;
6306;SDS011;3186;54.062;9.962;2024-01-30T09:06:29;29.73;;;18.20;;
6306;SDS011;3186;54.062;9.962;2024-01-30T09:08:54;24.27;;;18.10;;
6306;SDS011;3186;54.062;9.962;2024-01-30T09:11:20;29.63;;;20.40;;
6306;SDS011;3186;54.062;9.962;2024-01-30T09:13:46;27.27;;;20.27;;
6306;SDS011;3186;54.062;9.962;2024-01-30T09:16:11;33.23;;;19.47;;
6306;SDS011;3186;54.062;9.962;2024-01-30T09:18:37;25.07;;;18.47;;
6306;SDS011;3186;54.062;9.962;2024-01-30T09:21:02;26.73;;;19.87;;
6306;SDS011;3186;54.062;9.962;2024-01-30T09:23:28;29.43;;;19.30;;
6306;SDS011;3186;54.062;9.962;2024-01-30T09:25:54;25.53;;;18.97;;
6306;SDS011;3186;54.062;9.962;2024-01-30T09:28:20;27.10;;;18.47;;
6306;SDS011;3186;54.062;9.962;2024-01-30T09:30:46;34.80;;;19.27;;
6306;SDS011;3186;54.062;9.962;2024-01-30T09:33:12;28.73;;;19.43;;
6306;SDS011;3186;54.062;9.962;2024-01-30T09:35:37;25.13;;;18.13;;
6306;SDS011;3186;54.062;9.962;2024-01-30T09:38:03;23.57;;;17.40;;
6306;SDS011;3186;54.062;9.962;2024-01-30T09:40:29;24.83;;;18.63;;
6306;SDS011;3186;54.062;9.962;2024-01-30T09:42:54;31.97;;;19.83;;
6306;SDS011;3186;54.062;9.962;2024-01-30T09:45:23;26.47;;;19.60;;
6306;SDS011;3186;54.062;9.962;2024-01-30T09:47:50;26.60;;;19.97;;
6306;SDS011;3186;54.062;9.962;2024-01-30T09:50:16;28.20;;;19.60;;
6306;SDS011;3186;54.062;9.962;2024-01-30T09:52:42;27.20;;;19.13;;
6306;SDS011;3186;54.062;9.962;2024-01-30T09:55:10;31.70;;;19.87;;
6306;SDS011;3186;54.062;9.962;2024-01-30T09:57:35;27.93;;;19.90;;
6306;SDS011;3186;54.062;9.962;2024-01-30T10:00:02;28.53;;;19.43;;
6306;SDS011;3186;54.062;9.962;2024-01-30T10:02:37;27.17;;;20.67;;
6306;SDS011;3186;54.062;9.962;2024-01-30T10:05:03;33.13;;;20.43;;
6306;SDS011;3186;54.062;9.962;2024-01-30T10:07:30;32.33;;;19.30;;
6306;SDS011;3186;54.062;9.962;2024-01-30T10:09:56;26.40;;;19.70;;
6306;SDS011;3186;54.062;9.962;2024-01-30T10:12:22;31.77;;;20.60;;
6306;SDS011;3186;54.062;9.962;2024-01-30T10:14:48;23.83;;;19.57;;
6306;SDS011;3186;54.062;9.962;2024-01-30T10:17:13;27.10;;;20.53;;
6306;SDS011;3186;54.062;9.962;2024-01-30T10:19:39;28.97;;;19.73;;
6306;SDS011;3186;54.062;9.962;2024-01-30T10:22:05;30.27;;;20.53;;
6306;SDS011;3186;54.062;9.962;2024-01-30T10:24:33;31.03;;;20.43;;
6306;SDS011;3186;54.062;9.962;2024-01-30T10:26:59;30.13;;;20.10;;
6306;SDS011;3186;54.062;9.962;2024-01-30T10:29:25;29.13;;;20.67;;
6306;SDS011;3186;54.062;9.962;2024-01-30T10:32:03;32.10;;;20.00;;
6306;SDS011;3186;54.062;9.962;2024-01-30T10:34:30;28.27;;;19.73;;
6306;SDS011;3186;54.062;9.962;2024-01-30T10:37:03;28.17;;;19.77;;
6306;SDS011;3186;54.062;9.962;2024-01-30T10:39:37;22.63;;;19.50;;
6306;SDS011;3186;54.062;9.962;2024-01-30T10:42:04;33.27;;;21.10;;
6306;SDS011;3186;54.062;9.962;2024-01-30T10:44:39;31.37;;;20.40;;
6306;SDS011;3186;54.062;9.962;2024-01-30T10:47:15;34.73;;;23.37;;
6306;SDS011;3186;54.062;9.962;2024-01-30T10:49:46;29.77;;;20.37;;
6306;SDS011;3186;54.062;9.962;2024-01-30T10:52:12;26.60;;;19.73;;
6306;SDS011;3186;54.062;9.962;2024-01-30T10:54:40;33.23;;;20.27;;
6306;SDS011;3186;54.062;9.962;2024-01-30T10:57:09;32.80;;;20.30;;
6306;SDS011;3186;54.062;9.962;2024-01-30T10:59:36;29.10;;;19.87;;
6306;SDS011;3186;54.062;9.962;2024-01-30T11:02:02;26.20;;;19.07;;
6306;SDS011;3186;54.062;9.962;2024-01-30T11:04:35;32.40;;;20.13;;
6306;SDS011;3186;54.062;9.962;2024-01-30T11:07:15;23.20;;;19.13;;
6306;SDS011;3186;54.062;9.962;2024-01-30T11:09:52;30.30;;;19.77;;
6306;SDS011;3186;54.062;9.962;2024-01-30T11:12:22;26.60;;;18.90;;
6306;SDS011;3186;54.062;9.962;2024-01-30T11:15:07;29.97;;;19.07;;
6306;SDS011;3186;54.062;9.962;2024-01-30T11:22:46;24.10;;;18.70;;
6306;SDS011;3186;54.062;9.962;2024-01-30T11:25:13;27.20;;;19.07;;
6306;SDS011;3186;54.062;9.962;2024-01-30T11:27:40;32.40;;;20.07;;
6306;SDS011;3186;54.062;9.962;2024-01-30T11:30:07;31.17;;;19.10;;
6306;SDS011;3186;54.062;9.962;2024-01-30T11:32:33;28.37;;;19.07;;
6306;SDS011;3186;54.062;9.962;2024-01-30T11:34:59;24.80;;;18.53;;
6306;SDS011;3186;54.062;9.962;2024-01-30T11:37:25;30.27;;;19.13;;
6306;SDS011;3186;54.062;9.962;2024-01-30T11:39:54;26.93;;;18.73;;
6306;SDS011;3186;54.062;9.962;2024-01-30T11:42:22;26.37;;;18.10;;
6306;SDS011;3186;54.062;9.962;2024-01-30T11:44:50;23.80;;;18.63;;
6306;SDS011;3186;54.062;9.962;2024-01-30T11:47:16;27.97;;;18.13;;
6306;SDS011;3186;54.062;9.962;2024-01-30T11:49:42;28.70;;;17.73;;
6306;SDS011;3186;54.062;9.962;2024-01-30T11:52:09;24.33;;;18.60;;
6306;SDS011;3186;54.062;9.962;2024-01-30T11:54:34;26.07;;;17.97;;
6306;SDS011;3186;54.062;9.962;2024-01-30T11:57:00;24.67;;;17.67;;
6306;SDS011;3186;54.062;9.962;2024-01-30T11:59:26;23.70;;;17.50;;
6306;SDS011;3186;54.062;9.962;2024-01-30T12:01:52;28.23;;;18.20;;
6306;SDS011;3186;54.062;9.962;2024-01-30T12:04:17;22.00;;;17.83;;
6306;SDS011;3186;54.062;9.962;2024-01-30T12:06:43;25.87;;;18.33;;
6306;SDS011;3186;54.062;9.962;2024-01-30T12:09:09;27.43;;;18.97;;
6306;SDS011;3186;54.062;9.962;2024-01-30T12:11:46;25.70;;;18.23;;
6306;SDS011;3186;54.062;9.962;2024-01-30T12:14:13;23.23;;;17.63;;
6306;SDS011;3186;54.062;9.962;2024-01-30T12:16:39;25.23;;;18.53;;
6306;SDS011;3186;54.062;9.962;2024-01-30T12:19:04;25.47;;;18.67;;
6306;SDS011;3186;54.062;9.962;2024-01-30T12:21:30;24.77;;;18.13;;
6306;SDS011;3186;54.062;9.962;2024-01-30T12:23:59;31.50;;;18.37;;
6306;SDS011;3186;54.062;9.962;2024-01-30T12:26:25;23.33;;;18.23;;
6306;SDS011;3186;54.062;9.962;2024-01-30T12:28:53;27.77;;;18.17;;
6306;SDS011;3186;54.062;9.962;2024-01-30T12:31:26;24.33;;;18.20;;
6306;SDS011;3186;54.062;9.962;2024-01-30T12:33:53;27.13;;;18.60;;
6306;SDS011;3186;54.062;9.962;2024-01-30T12:36:19;22.23;;;17.67;;
6306;SDS011;3186;54.062;9.962;2024-01-30T12:38:44;23.63;;;17.67;;
6306;SDS011;3186;54.062;9.962;2024-01-30T12:41:10;24.27;;;17.57;;
6306;SDS011;3186;54.062;9.962;2024-01-30T12:43:36;23.90;;;17.37;;
6306;SDS011;3186;54.062;9.962;2024-01-30T12:46:02;21.67;;;17.30;;
6306;SDS011;3186;54.062;9.962;2024-01-30T12:48:28;22.97;;;17.10;;
6306;SDS011;3186;54.062;9.962;2024-01-30T12:50:55;26.57;;;17.73;;
6306;SDS011;3186;54.062;9.962;2024-01-30T12:53:21;22.17;;;17.70;;
6306;SDS011;3186;54.062;9.962;2024-01-30T12:55:47;25.63;;;16.90;;
6306;SDS011;3186;54.062;9.962;2024-01-30T12:58:14;23.67;;;17.20;;
6306;SDS011;3186;54.062;9.962;2024-01-30T13:00:40;23.47;;;17.97;;
6306;SDS011;3186;54.062;9.962;2024-01-30T13:03:08;23.10;;;17.57;;
6306;SDS011;3186;54.062;9.962;2024-01-30T13:05:35;26.60;;;17.40;;
6306;SDS011;3186;54.062;9.962;2024-01-30T13:08:00;24.27;;;16.40;;
6306;SDS011;3186;54.062;9.962;2024-01-30T13:10:26;30.20;;;16.97;;
6306;SDS011;3186;54.062;9.962;2024-01-30T13:12:52;23.63;;;17.67;;
6306;SDS011;3186;54.062;9.962;2024-01-30T13:15:18;28.13;;;17.13;;
6306;SDS011;3186;54.062;9.962;2024-01-30T13:17:44;26.50;;;17.47;;
6306;SDS011;3186;54.062;9.962;2024-01-30T13:20:12;24.60;;;15.97;;
6306;SDS011;3186;54.062;9.962;2024-01-30T13:22:41;29.30;;;17.57;;
6306;SDS011;3186;54.062;9.962;2024-01-30T13:25:08;28.53;;;16.93;;
6306;SDS011;3186;54.062;9.962;2024-01-30T13:27:34;27.60;;;17.97;;
6306;SDS011;3186;54.062;9.962;2024-01-30T13:29:59;23.63;;;16.07;;
6306;SDS011;3186;54.062;9.962;2024-01-30T13:32:25;25.13;;;17.40;;
6306;SDS011;3186;54.062;9.962;2024-01-30T13:34:51;30.83;;;17.47;;
6306;SDS011;3186;54.062;9.962;2024-01-30T13:37:16;19.20;;;16.03;;
6306;SDS011;3186;54.062;9.962;2024-01-30T13:39:42;22.40;;;17.63;;
6306;SDS011;3186;54.062;9.962;2024-01-30T13:42:08;29.30;;;18.20;;
6306;SDS011;3186;54.062;9.962;2024-01-30T13:44:34;25.53;;;17.60;;
6306;SDS011;3186;54.062;9.962;2024-01-30T13:47:00;25.13;;;17.60;;
6306;SDS011;3186;54.062;9.962;2024-01-30T13:49:26;25.17;;;18.90;;
6306;SDS011;3186;54.062;9.962;2024-01-30T13:51:52;26.07;;;17.43;;
6306;SDS011;3186;54.062;9.962;2024-01-30T13:54:18;25.50;;;17.87;;
6306;SDS011;3186;54.062;9.962;2024-01-30T13:56:43;24.03;;;18.53;;
6306;SDS011;3186;54.062;9.962;2024-01-30T13:59:09;22.97;;;16.77;;
6306;SDS011;3186;54.062;9.962;2024-01-30T14:01:35;26.00;;;16.93;;
6306;SDS011;3186;54.062;9.962;2024-01-30T14:04:00;25.33;;;18.80;;
6306;SDS011;3186;54.062;9.962;2024-01-30T14:06:26;26.60;;;17.53;;
6306;SDS011;3186;54.062;9.962;2024-01-30T14:08:51;26.70;;;17.43;;
6306;SDS011;3186;54.062;9.962;2024-01-30T14:11:17;28.80;;;17.37;;
6306;SDS011;3186;54.062;9.962;2024-01-30T14:13:43;22.83;;;17.13;;
6306;SDS011;3186;54.062;9.962;2024-01-30T14:16:08;20.43;;;16.87;;
6306;SDS011;3186;54.062;9.962;2024-01-30T14:18:34;26.67;;;18.63;;
6306;SDS011;3186;54.062;9.962;2024-01-30T14:21:00;23.43;;;17.63;;
6306;SDS011;3186;54.062;9.962;2024-01-30T14:23:26;26.03;;;18.40;;
6306;SDS011;3186;54.062;9.962;2024-01-30T14:25:51;31.40;;;19.90;;
6306;SDS011;3186;54.062;9.962;2024-01-30T14:28:17;23.97;;;17.87;;
6306;SDS011;3186;54.062;9.962;2024-01-30T14:30:43;28.63;;;18.23;;
6306;SDS011;3186;54.062;9.962;2024-01-30T14:33:09;35.70;;;18.40;;
6306;SDS011;3186;54.062;9.962;2024-01-30T14:35:34;24.97;;;17.90;;
6306;SDS011;3186;54.062;9.962;2024-01-30T14:38:00;28.87;;;17.20;;
6306;SDS011;3186;54.062;9.962;2024-01-30T14:40:27;26.90;;;18.20;;
6306;SDS011;3186;54.062;9.962;2024-01-30T14:42:52;29.03;;;17.50;;
6306;SDS011;3186;54.062;9.962;2024-01-30T14:45:18;29.23;;;19.03;;
6306;SDS011;3186;54.062;9.962;2024-01-30T14:47:43;24.93;;;16.57;;